sensor_id;sensor_type;location;lat;lon;timestamp;P1;durP1;ratioP1;P2;durP2;ratioP2
51780;SDS011;37844;57.126;24.288;2023-07-20T00:01:29;28.77;;;9.68;;
51780;SDS011;37844;57.126;24.288;2023-07-20T00:04:13;13.27;;;8.27;;
51780;SDS011;37844;57.126;24.288;2023-07-20T00:06:58;15.10;;;8.60;;
51780;SDS011;37844;57.126;24.288;2023-07-20T00:09:44;19.98;;;9.40;;
51780;SDS011;37844;57.126;24.288;2023-07-20T00:12:28;18.20;;;8.32;;
51780;SDS011;37844;57.126;24.288;2023-07-20T00:15:13;21.60;;;9.02;;
51780;SDS011;37844;57.126;24.288;2023-07-20T00:17:57;18.38;;;8.88;;
51780;SDS011;37844;57.126;24.288;2023-07-20T00:20:41;20.25;;;7.97;;
51780;SDS011;37844;57.126;24.288;2023-07-20T00:23:25;18.63;;;8.20;;
51780;SDS011;37844;57.126;24.288;2023-07-20T00:26:10;12.30;;;7.30;;
51780;SDS011;37844;57.126;24.288;2023-07-20T00:28:54;24.25;;;9.27;;
51780;SDS011;37844;57.126;24.288;2023-07-20T00:31:37;20.38;;;7.65;;
51780;SDS011;37844;57.126;24.288;2023-07-20T00:34:21;19.85;;;8.80;;
51780;SDS011;37844;57.126;24.288;2023-07-20T00:37:05;17.50;;;9.00;;
51780;SDS011;37844;57.126;24.288;2023-07-20T00:39:50;16.58;;;8.13;;
51780;SDS011;37844;57.126;24.288;2023-07-20T00:42:34;23.10;;;7.68;;
51780;SDS011;37844;57.126;24.288;2023-07-20T00:45:19;38.00;;;9.27;;
51780;SDS011;37844;57.126;24.288;2023-07-20T00:48:03;23.80;;;8.43;;
51780;SDS011;37844;57.126;24.288;2023-07-20T00:50:50;24.65;;;7.97;;
51780;SDS011;37844;57.126;24.288;2023-07-20T00:53:34;11.75;;;6.55;;
51780;SDS011;37844;57.126;24.288;2023-07-20T00:56:18;15.52;;;8.10;;
51780;SDS011;37844;57.126;24.288;2023-07-20T00:59:06;11.65;;;6.63;;
51780;SDS011;37844;57.126;24.288;2023-07-20T01:01:50;17.98;;;7.43;;
51780;SDS011;37844;57.126;24.288;2023-07-20T01:04:35;25.35;;;6.97;;
51780;SDS011;37844;57.126;24.288;2023-07-20T01:07:23;15.95;;;6.97;;
51780;SDS011;37844;57.126;24.288;2023-07-20T01:10:20;14.68;;;6.63;;
51780;SDS011;37844;57.126;24.288;2023-07-20T01:13:13;15.45;;;7.00;;
51780;SDS011;37844;57.126;24.288;2023-07-20T01:16:00;11.52;;;5.10;;
51780;SDS011;37844;57.126;24.288;2023-07-20T01:18:45;13.30;;;5.72;;
51780;SDS011;37844;57.126;24.288;2023-07-20T01:21:34;12.07;;;5.80;;
51780;SDS011;37844;57.126;24.288;2023-07-20T01:30:50;14.10;;;4.47;;
51780;SDS011;37844;57.126;24.288;2023-07-20T01:33:40;21.13;;;4.40;;
51780;SDS011;37844;57.126;24.288;2023-07-20T01:36:26;10.48;;;5.25;;
51780;SDS011;37844;57.126;24.288;2023-07-20T01:39:12;14.52;;;4.65;;
51780;SDS011;37844;57.126;24.288;2023-07-20T01:41:58;17.23;;;3.60;;
51780;SDS011;37844;57.126;24.288;2023-07-20T01:44:42;14.88;;;3.53;;
51780;SDS011;37844;57.126;24.288;2023-07-20T01:47:26;9.48;;;3.67;;
51780;SDS011;37844;57.126;24.288;2023-07-20T01:50:10;17.38;;;3.95;;
51780;SDS011;37844;57.126;24.288;2023-07-20T01:52:54;7.72;;;2.75;;
51780;SDS011;37844;57.126;24.288;2023-07-20T01:55:39;23.15;;;5.80;;
51780;SDS011;37844;57.126;24.288;2023-07-20T01:58:23;17.63;;;4.85;;
51780;SDS011;37844;57.126;24.288;2023-07-20T02:01:07;14.10;;;4.38;;
51780;SDS011;37844;57.126;24.288;2023-07-20T02:03:51;13.55;;;5.10;;
51780;SDS011;37844;57.126;24.288;2023-07-20T02:06:35;12.07;;;5.13;;
51780;SDS011;37844;57.126;24.288;2023-07-20T02:12:59;12.48;;;3.95;;
51780;SDS011;37844;57.126;24.288;2023-07-20T02:15:43;11.70;;;3.35;;
51780;SDS011;37844;57.126;24.288;2023-07-20T02:18:28;11.63;;;3.92;;
51780;SDS011;37844;57.126;24.288;2023-07-20T02:21:12;11.13;;;4.03;;
51780;SDS011;37844;57.126;24.288;2023-07-20T02:23:56;18.23;;;4.43;;
51780;SDS011;37844;57.126;24.288;2023-07-20T02:26:40;22.45;;;6.65;;
51780;SDS011;37844;57.126;24.288;2023-07-20T02:29:25;14.77;;;4.68;;
51780;SDS011;37844;57.126;24.288;2023-07-20T02:32:09;15.02;;;5.55;;
51780;SDS011;37844;57.126;24.288;2023-07-20T02:34:54;17.33;;;4.45;;
51780;SDS011;37844;57.126;24.288;2023-07-20T02:37:38;11.65;;;4.43;;
51780;SDS011;37844;57.126;24.288;2023-07-20T02:40:22;14.68;;;5.10;;
51780;SDS011;37844;57.126;24.288;2023-07-20T02:43:06;20.65;;;6.22;;
51780;SDS011;37844;57.126;24.288;2023-07-20T02:45:50;15.23;;;7.93;;
51780;SDS011;37844;57.126;24.288;2023-07-20T02:48:35;17.83;;;8.40;;
51780;SDS011;37844;57.126;24.288;2023-07-20T02:51:19;17.65;;;5.80;;
51780;SDS011;37844;57.126;24.288;2023-07-20T02:54:03;20.42;;;6.38;;
51780;SDS011;37844;57.126;24.288;2023-07-20T02:56:50;14.68;;;6.30;;
51780;SDS011;37844;57.126;24.288;2023-07-20T02:59:34;16.40;;;6.35;;
51780;SDS011;37844;57.126;24.288;2023-07-20T03:02:18;19.00;;;6.05;;
51780;SDS011;37844;57.126;24.288;2023-07-20T03:05:02;17.92;;;5.18;;
51780;SDS011;37844;57.126;24.288;2023-07-20T03:07:49;12.60;;;5.90;;
51780;SDS011;37844;57.126;24.288;2023-07-20T03:10:38;18.17;;;5.75;;
51780;SDS011;37844;57.126;24.288;2023-07-20T03:13:25;9.85;;;4.88;;
51780;SDS011;37844;57.126;24.288;2023-07-20T03:16:09;19.55;;;5.63;;
51780;SDS011;37844;57.126;24.288;2023-07-20T03:18:55;12.98;;;5.35;;
51780;SDS011;37844;57.126;24.288;2023-07-20T03:21:39;15.02;;;6.20;;
51780;SDS011;37844;57.126;24.288;2023-07-20T03:24:24;15.85;;;5.57;;
51780;SDS011;37844;57.126;24.288;2023-07-20T03:27:09;14.80;;;6.03;;
51780;SDS011;37844;57.126;24.288;2023-07-20T03:29:53;14.27;;;5.70;;
51780;SDS011;37844;57.126;24.288;2023-07-20T03:32:37;23.42;;;10.75;;
51780;SDS011;37844;57.126;24.288;2023-07-20T03:35:22;14.57;;;4.50;;
51780;SDS011;37844;57.126;24.288;2023-07-20T03:38:07;12.90;;;4.50;;
51780;SDS011;37844;57.126;24.288;2023-07-20T03:43:41;15.52;;;4.70;;
51780;SDS011;37844;57.126;24.288;2023-07-20T03:46:25;17.65;;;5.25;;
51780;SDS011;37844;57.126;24.288;2023-07-20T03:49:09;14.45;;;5.57;;
51780;SDS011;37844;57.126;24.288;2023-07-20T03:51:53;14.18;;;4.80;;
51780;SDS011;37844;57.126;24.288;2023-07-20T03:54:37;12.45;;;4.50;;
51780;SDS011;37844;57.126;24.288;2023-07-20T03:57:21;14.70;;;5.57;;
51780;SDS011;37844;57.126;24.288;2023-07-20T04:00:05;12.93;;;5.97;;
51780;SDS011;37844;57.126;24.288;2023-07-20T04:02:51;11.15;;;5.93;;
51780;SDS011;37844;57.126;24.288;2023-07-20T04:05:35;10.35;;;5.63;;
51780;SDS011;37844;57.126;24.288;2023-07-20T04:08:19;16.35;;;6.20;;
51780;SDS011;37844;57.126;24.288;2023-07-20T04:11:03;13.65;;;4.80;;
51780;SDS011;37844;57.126;24.288;2023-07-20T04:13:47;16.58;;;6.85;;
51780;SDS011;37844;57.126;24.288;2023-07-20T04:16:31;13.32;;;6.20;;
51780;SDS011;37844;57.126;24.288;2023-07-20T04:19:16;14.90;;;6.90;;
51780;SDS011;37844;57.126;24.288;2023-07-20T04:22:01;21.73;;;6.70;;
51780;SDS011;37844;57.126;24.288;2023-07-20T04:24:46;19.60;;;5.82;;
51780;SDS011;37844;57.126;24.288;2023-07-20T04:27:30;9.50;;;5.10;;
51780;SDS011;37844;57.126;24.288;2023-07-20T04:30:16;14.20;;;5.03;;
51780;SDS011;37844;57.126;24.288;2023-07-20T04:33:03;8.95;;;4.57;;
51780;SDS011;37844;57.126;24.288;2023-07-20T04:35:51;19.00;;;5.65;;
51780;SDS011;37844;57.126;24.288;2023-07-20T04:38:36;18.05;;;5.38;;
51780;SDS011;37844;57.126;24.288;2023-07-20T04:41:20;19.52;;;5.72;;
51780;SDS011;37844;57.126;24.288;2023-07-20T04:44:11;10.13;;;4.85;;
51780;SDS011;37844;57.126;24.288;2023-07-20T04:47:03;18.58;;;5.93;;
51780;SDS011;37844;57.126;24.288;2023-07-20T04:49:47;9.82;;;4.95;;
51780;SDS011;37844;57.126;24.288;2023-07-20T04:52:32;11.45;;;4.45;;
51780;SDS011;37844;57.126;24.288;2023-07-20T04:55:20;22.17;;;5.53;;
51780;SDS011;37844;57.126;24.288;2023-07-20T04:58:05;18.95;;;6.03;;
51780;SDS011;37844;57.126;24.288;2023-07-20T05:00:49;17.23;;;6.05;;
51780;SDS011;37844;57.126;24.288;2023-07-20T05:03:34;16.65;;;7.05;;
51780;SDS011;37844;57.126;24.288;2023-07-20T05:06:18;17.30;;;5.53;;
51780;SDS011;37844;57.126;24.288;2023-07-20T05:09:02;16.67;;;5.68;;
51780;SDS011;37844;57.126;24.288;2023-07-20T05:11:48;16.38;;;6.05;;
51780;SDS011;37844;57.126;24.288;2023-07-20T05:14:32;18.73;;;6.45;;
51780;SDS011;37844;57.126;24.288;2023-07-20T05:17:17;13.88;;;6.43;;
51780;SDS011;37844;57.126;24.288;2023-07-20T05:20:01;34.40;;;6.85;;
51780;SDS011;37844;57.126;24.288;2023-07-20T05:22:47;19.73;;;5.93;;
51780;SDS011;37844;57.126;24.288;2023-07-20T05:25:32;21.10;;;6.38;;
51780;SDS011;37844;57.126;24.288;2023-07-20T05:28:16;12.25;;;5.57;;
51780;SDS011;37844;57.126;24.288;2023-07-20T05:31:02;18.38;;;5.55;;
51780;SDS011;37844;57.126;24.288;2023-07-20T05:33:47;19.00;;;6.47;;
51780;SDS011;37844;57.126;24.288;2023-07-20T05:36:31;15.07;;;6.72;;
51780;SDS011;37844;57.126;24.288;2023-07-20T05:39:16;12.80;;;6.68;;
51780;SDS011;37844;57.126;24.288;2023-07-20T05:42:01;17.63;;;6.55;;
51780;SDS011;37844;57.126;24.288;2023-07-20T05:44:45;17.92;;;5.82;;
51780;SDS011;37844;57.126;24.288;2023-07-20T05:48:08;13.93;;;5.68;;
51780;SDS011;37844;57.126;24.288;2023-07-20T05:50:54;11.27;;;4.18;;
51780;SDS011;37844;57.126;24.288;2023-07-20T05:53:38;16.42;;;4.88;;
51780;SDS011;37844;57.126;24.288;2023-07-20T05:56:22;10.27;;;4.35;;
51780;SDS011;37844;57.126;24.288;2023-07-20T05:59:06;9.77;;;4.82;;
51780;SDS011;37844;57.126;24.288;2023-07-20T06:01:50;11.00;;;4.95;;
51780;SDS011;37844;57.126;24.288;2023-07-20T06:04:34;9.75;;;4.00;;
51780;SDS011;37844;57.126;24.288;2023-07-20T06:07:18;13.65;;;5.57;;
51780;SDS011;37844;57.126;24.288;2023-07-20T06:10:02;11.25;;;4.13;;
51780;SDS011;37844;57.126;24.288;2023-07-20T06:12:47;7.30;;;3.42;;
51780;SDS011;37844;57.126;24.288;2023-07-20T06:15:32;7.85;;;3.72;;
51780;SDS011;37844;57.126;24.288;2023-07-20T06:18:19;8.65;;;3.80;;
51780;SDS011;37844;57.126;24.288;2023-07-20T06:21:05;7.28;;;3.75;;
51780;SDS011;37844;57.126;24.288;2023-07-20T06:23:49;13.95;;;3.53;;
51780;SDS011;37844;57.126;24.288;2023-07-20T06:26:33;11.02;;;3.67;;
51780;SDS011;37844;57.126;24.288;2023-07-20T06:29:22;5.43;;;2.58;;
51780;SDS011;37844;57.126;24.288;2023-07-20T06:32:07;7.65;;;3.03;;
51780;SDS011;37844;57.126;24.288;2023-07-20T06:34:52;19.27;;;3.72;;
51780;SDS011;37844;57.126;24.288;2023-07-20T06:37:38;9.80;;;3.55;;
51780;SDS011;37844;57.126;24.288;2023-07-20T06:40:23;53.05;;;29.77;;
51780;SDS011;37844;57.126;24.288;2023-07-20T06:43:07;29.42;;;15.20;;
51780;SDS011;37844;57.126;24.288;2023-07-20T06:45:54;6.10;;;2.95;;
51780;SDS011;37844;57.126;24.288;2023-07-20T06:48:38;19.52;;;2.92;;
51780;SDS011;37844;57.126;24.288;2023-07-20T06:51:23;10.45;;;3.35;;
51780;SDS011;37844;57.126;24.288;2023-07-20T06:54:07;8.00;;;2.17;;
51780;SDS011;37844;57.126;24.288;2023-07-20T06:56:51;13.45;;;5.20;;
51780;SDS011;37844;57.126;24.288;2023-07-20T06:59:36;4.13;;;2.30;;
51780;SDS011;37844;57.126;24.288;2023-07-20T07:02:29;5.05;;;2.25;;
51780;SDS011;37844;57.126;24.288;2023-07-20T07:05:14;12.23;;;3.53;;
51780;SDS011;37844;57.126;24.288;2023-07-20T07:08:02;7.57;;;3.65;;
51780;SDS011;37844;57.126;24.288;2023-07-20T07:10:46;9.15;;;3.25;;
51780;SDS011;37844;57.126;24.288;2023-07-20T07:13:37;3.33;;;1.55;;
51780;SDS011;37844;57.126;24.288;2023-07-20T07:16:21;8.88;;;1.20;;
51780;SDS011;37844;57.126;24.288;2023-07-20T07:19:05;6.53;;;2.05;;
51780;SDS011;37844;57.126;24.288;2023-07-20T07:21:50;17.95;;;4.72;;
51780;SDS011;37844;57.126;24.288;2023-07-20T07:24:35;6.18;;;2.53;;
51780;SDS011;37844;57.126;24.288;2023-07-20T07:27:19;6.90;;;1.83;;
51780;SDS011;37844;57.126;24.288;2023-07-20T07:30:04;9.75;;;2.58;;
51780;SDS011;37844;57.126;24.288;2023-07-20T07:32:49;24.02;;;4.55;;
51780;SDS011;37844;57.126;24.288;2023-07-20T07:35:33;24.23;;;2.92;;
51780;SDS011;37844;57.126;24.288;2023-07-20T07:38:18;11.23;;;2.17;;
51780;SDS011;37844;57.126;24.288;2023-07-20T07:41:03;6.88;;;1.85;;
51780;SDS011;37844;57.126;24.288;2023-07-20T07:43:47;7.32;;;1.23;;
51780;SDS011;37844;57.126;24.288;2023-07-20T07:46:31;2.50;;;1.40;;
51780;SDS011;37844;57.126;24.288;2023-07-20T07:49:15;4.88;;;1.27;;
51780;SDS011;37844;57.126;24.288;2023-07-20T07:52:00;7.20;;;1.77;;
51780;SDS011;37844;57.126;24.288;2023-07-20T07:54:46;4.60;;;0.93;;
51780;SDS011;37844;57.126;24.288;2023-07-20T07:57:30;8.88;;;1.52;;
51780;SDS011;37844;57.126;24.288;2023-07-20T08:00:14;4.70;;;1.35;;
51780;SDS011;37844;57.126;24.288;2023-07-20T08:02:59;5.03;;;1.55;;
51780;SDS011;37844;57.126;24.288;2023-07-20T08:05:43;3.53;;;1.40;;
51780;SDS011;37844;57.126;24.288;2023-07-20T08:08:27;6.13;;;1.38;;
51780;SDS011;37844;57.126;24.288;2023-07-20T08:11:11;4.22;;;1.90;;
51780;SDS011;37844;57.126;24.288;2023-07-20T08:13:55;3.47;;;1.08;;
51780;SDS011;37844;57.126;24.288;2023-07-20T08:16:46;7.53;;;1.85;;
51780;SDS011;37844;57.126;24.288;2023-07-20T08:19:31;6.05;;;2.08;;
51780;SDS011;37844;57.126;24.288;2023-07-20T08:22:15;17.85;;;2.17;;
51780;SDS011;37844;57.126;24.288;2023-07-20T08:24:59;12.07;;;2.20;;
51780;SDS011;37844;57.126;24.288;2023-07-20T08:27:43;2.47;;;1.10;;
51780;SDS011;37844;57.126;24.288;2023-07-20T08:30:37;12.75;;;2.63;;
51780;SDS011;37844;57.126;24.288;2023-07-20T08:33:32;5.75;;;1.60;;
51780;SDS011;37844;57.126;24.288;2023-07-20T08:36:17;6.03;;;1.80;;
51780;SDS011;37844;57.126;24.288;2023-07-20T08:39:01;3.10;;;1.60;;
51780;SDS011;37844;57.126;24.288;2023-07-20T08:41:47;2.85;;;1.23;;
51780;SDS011;37844;57.126;24.288;2023-07-20T08:44:32;5.57;;;1.40;;
51780;SDS011;37844;57.126;24.288;2023-07-20T08:47:17;2.60;;;1.10;;
51780;SDS011;37844;57.126;24.288;2023-07-20T08:50:05;5.15;;;1.25;;
51780;SDS011;37844;57.126;24.288;2023-07-20T08:52:53;10.23;;;1.70;;
51780;SDS011;37844;57.126;24.288;2023-07-20T08:55:41;4.55;;;1.73;;
51780;SDS011;37844;57.126;24.288;2023-07-20T08:58:29;4.13;;;1.25;;
51780;SDS011;37844;57.126;24.288;2023-07-20T09:01:14;4.30;;;1.17;;
51780;SDS011;37844;57.126;24.288;2023-07-20T09:03:59;7.47;;;1.25;;
51780;SDS011;37844;57.126;24.288;2023-07-20T09:06:43;2.65;;;1.63;;
51780;SDS011;37844;57.126;24.288;2023-07-20T09:09:27;6.68;;;1.70;;
51780;SDS011;37844;57.126;24.288;2023-07-20T09:12:15;4.25;;;0.95;;
51780;SDS011;37844;57.126;24.288;2023-07-20T09:14:59;6.22;;;2.03;;
51780;SDS011;37844;57.126;24.288;2023-07-20T09:17:48;2.30;;;1.20;;
51780;SDS011;37844;57.126;24.288;2023-07-20T09:23:18;9.25;;;2.28;;
51780;SDS011;37844;57.126;24.288;2023-07-20T09:26:14;3.35;;;0.95;;
51780;SDS011;37844;57.126;24.288;2023-07-20T09:28:59;5.60;;;1.27;;
51780;SDS011;37844;57.126;24.288;2023-07-20T09:31:43;8.23;;;1.17;;
51780;SDS011;37844;57.126;24.288;2023-07-20T09:34:42;4.43;;;1.25;;
51780;SDS011;37844;57.126;24.288;2023-07-20T09:37:27;6.78;;;1.60;;
51780;SDS011;37844;57.126;24.288;2023-07-20T09:40:11;4.22;;;1.10;;
51780;SDS011;37844;57.126;24.288;2023-07-20T09:43:00;6.03;;;1.77;;
51780;SDS011;37844;57.126;24.288;2023-07-20T09:45:47;5.05;;;1.38;;
51780;SDS011;37844;57.126;24.288;2023-07-20T09:48:32;5.40;;;1.10;;
51780;SDS011;37844;57.126;24.288;2023-07-20T09:51:16;4.45;;;1.33;;
51780;SDS011;37844;57.126;24.288;2023-07-20T09:54:02;2.67;;;0.98;;
51780;SDS011;37844;57.126;24.288;2023-07-20T09:56:48;1.42;;;1.00;;
51780;SDS011;37844;57.126;24.288;2023-07-20T09:59:32;2.38;;;0.77;;
51780;SDS011;37844;57.126;24.288;2023-07-20T10:02:21;6.78;;;1.48;;
51780;SDS011;37844;57.126;24.288;2023-07-20T10:05:10;12.35;;;1.50;;
51780;SDS011;37844;57.126;24.288;2023-07-20T10:07:56;4.03;;;1.27;;
51780;SDS011;37844;57.126;24.288;2023-07-20T10:10:42;1.77;;;1.13;;
51780;SDS011;37844;57.126;24.288;2023-07-20T10:13:27;6.88;;;1.35;;
51780;SDS011;37844;57.126;24.288;2023-07-20T10:16:15;3.13;;;1.52;;
51780;SDS011;37844;57.126;24.288;2023-07-20T10:22:29;9.00;;;2.17;;
51780;SDS011;37844;57.126;24.288;2023-07-20T10:25:19;9.02;;;1.63;;
51780;SDS011;37844;57.126;24.288;2023-07-20T10:28:06;5.60;;;1.05;;
51780;SDS011;37844;57.126;24.288;2023-07-20T10:30:50;12.30;;;1.27;;
51780;SDS011;37844;57.126;24.288;2023-07-20T10:33:35;8.93;;;1.98;;
51780;SDS011;37844;57.126;24.288;2023-07-20T10:36:24;1.80;;;1.20;;
51780;SDS011;37844;57.126;24.288;2023-07-20T10:39:21;9.30;;;1.60;;
51780;SDS011;37844;57.126;24.288;2023-07-20T10:42:11;2.08;;;1.00;;
51780;SDS011;37844;57.126;24.288;2023-07-20T10:44:54;1.58;;;0.80;;
51780;SDS011;37844;57.126;24.288;2023-07-20T10:47:44;0.85;;;0.70;;
51780;SDS011;37844;57.126;24.288;2023-07-20T10:50:29;2.22;;;0.90;;
51780;SDS011;37844;57.126;24.288;2023-07-20T10:53:13;8.38;;;1.02;;
51780;SDS011;37844;57.126;24.288;2023-07-20T10:56:11;11.13;;;1.50;;
51780;SDS011;37844;57.126;24.288;2023-07-20T10:58:57;3.50;;;1.00;;
51780;SDS011;37844;57.126;24.288;2023-07-20T11:01:42;3.08;;;0.90;;
51780;SDS011;37844;57.126;24.288;2023-07-20T11:04:39;3.03;;;1.10;;
51780;SDS011;37844;57.126;24.288;2023-07-20T11:07:37;7.65;;;1.40;;
51780;SDS011;37844;57.126;24.288;2023-07-20T11:10:22;2.22;;;1.35;;
51780;SDS011;37844;57.126;24.288;2023-07-20T11:13:16;1.38;;;0.70;;
51780;SDS011;37844;57.126;24.288;2023-07-20T11:16:06;0.88;;;0.88;;
51780;SDS011;37844;57.126;24.288;2023-07-20T11:18:51;2.10;;;1.00;;
51780;SDS011;37844;57.126;24.288;2023-07-20T11:21:36;7.03;;;1.52;;
51780;SDS011;37844;57.126;24.288;2023-07-20T11:24:22;1.98;;;1.13;;
51780;SDS011;37844;57.126;24.288;2023-07-20T11:27:06;1.65;;;1.17;;
51780;SDS011;37844;57.126;24.288;2023-07-20T11:29:50;2.78;;;1.10;;
51780;SDS011;37844;57.126;24.288;2023-07-20T11:32:34;3.88;;;1.48;;
51780;SDS011;37844;57.126;24.288;2023-07-20T11:35:18;3.47;;;1.00;;
51780;SDS011;37844;57.126;24.288;2023-07-20T11:38:02;3.22;;;0.88;;
51780;SDS011;37844;57.126;24.288;2023-07-20T11:40:46;6.93;;;1.42;;
51780;SDS011;37844;57.126;24.288;2023-07-20T11:43:31;4.43;;;1.30;;
51780;SDS011;37844;57.126;24.288;2023-07-20T11:46:15;2.55;;;1.13;;
51780;SDS011;37844;57.126;24.288;2023-07-20T11:48:59;5.00;;;1.00;;
51780;SDS011;37844;57.126;24.288;2023-07-20T11:51:44;11.25;;;1.08;;
51780;SDS011;37844;57.126;24.288;2023-07-20T11:54:29;8.45;;;1.35;;
51780;SDS011;37844;57.126;24.288;2023-07-20T11:57:19;4.22;;;1.08;;
51780;SDS011;37844;57.126;24.288;2023-07-20T12:00:04;1.27;;;0.85;;
51780;SDS011;37844;57.126;24.288;2023-07-20T12:02:53;3.05;;;1.17;;
51780;SDS011;37844;57.126;24.288;2023-07-20T12:05:38;6.53;;;1.65;;
51780;SDS011;37844;57.126;24.288;2023-07-20T12:08:22;5.50;;;1.45;;
51780;SDS011;37844;57.126;24.288;2023-07-20T12:11:07;2.78;;;1.23;;
51780;SDS011;37844;57.126;24.288;2023-07-20T12:13:51;3.65;;;1.20;;
51780;SDS011;37844;57.126;24.288;2023-07-20T12:16:36;4.50;;;1.48;;
51780;SDS011;37844;57.126;24.288;2023-07-20T12:19:24;1.25;;;1.15;;
51780;SDS011;37844;57.126;24.288;2023-07-20T12:22:09;2.58;;;0.95;;
51780;SDS011;37844;57.126;24.288;2023-07-20T12:24:54;2.40;;;0.77;;
51780;SDS011;37844;57.126;24.288;2023-07-20T12:27:39;5.22;;;1.65;;
51780;SDS011;37844;57.126;24.288;2023-07-20T12:30:23;2.75;;;0.95;;
51780;SDS011;37844;57.126;24.288;2023-07-20T12:33:07;1.52;;;1.00;;
51780;SDS011;37844;57.126;24.288;2023-07-20T12:35:52;3.63;;;1.35;;
51780;SDS011;37844;57.126;24.288;2023-07-20T12:38:39;4.68;;;1.10;;
51780;SDS011;37844;57.126;24.288;2023-07-20T12:41:25;2.20;;;1.27;;
51780;SDS011;37844;57.126;24.288;2023-07-20T12:44:09;6.10;;;2.70;;
51780;SDS011;37844;57.126;24.288;2023-07-20T12:46:53;4.90;;;1.58;;
51780;SDS011;37844;57.126;24.288;2023-07-20T12:49:37;4.78;;;1.15;;
51780;SDS011;37844;57.126;24.288;2023-07-20T12:52:21;4.72;;;1.20;;
51780;SDS011;37844;57.126;24.288;2023-07-20T12:55:09;5.70;;;2.28;;
51780;SDS011;37844;57.126;24.288;2023-07-20T12:57:53;3.38;;;1.23;;
51780;SDS011;37844;57.126;24.288;2023-07-20T13:00:38;4.93;;;1.58;;
51780;SDS011;37844;57.126;24.288;2023-07-20T13:03:22;1.70;;;0.90;;
51780;SDS011;37844;57.126;24.288;2023-07-20T13:06:06;7.78;;;0.90;;
51780;SDS011;37844;57.126;24.288;2023-07-20T13:08:50;1.52;;;0.80;;
51780;SDS011;37844;57.126;24.288;2023-07-20T13:11:39;5.50;;;1.05;;
51780;SDS011;37844;57.126;24.288;2023-07-20T13:14:23;4.85;;;1.05;;
51780;SDS011;37844;57.126;24.288;2023-07-20T13:17:07;1.30;;;0.70;;
51780;SDS011;37844;57.126;24.288;2023-07-20T13:19:52;1.38;;;1.00;;
51780;SDS011;37844;57.126;24.288;2023-07-20T13:22:36;5.75;;;1.00;;
51780;SDS011;37844;57.126;24.288;2023-07-20T13:25:21;0.95;;;0.60;;
51780;SDS011;37844;57.126;24.288;2023-07-20T13:28:06;5.75;;;1.20;;
51780;SDS011;37844;57.126;24.288;2023-07-20T13:30:50;4.50;;;1.20;;
51780;SDS011;37844;57.126;24.288;2023-07-20T13:33:34;4.25;;;1.25;;
51780;SDS011;37844;57.126;24.288;2023-07-20T13:36:19;14.90;;;2.58;;
51780;SDS011;37844;57.126;24.288;2023-07-20T13:39:04;4.32;;;1.38;;
51780;SDS011;37844;57.126;24.288;2023-07-20T13:41:49;1.45;;;0.93;;
51780;SDS011;37844;57.126;24.288;2023-07-20T13:44:33;3.72;;;1.25;;
51780;SDS011;37844;57.126;24.288;2023-07-20T13:47:17;4.47;;;1.00;;
51780;SDS011;37844;57.126;24.288;2023-07-20T13:50:01;3.72;;;1.10;;
51780;SDS011;37844;57.126;24.288;2023-07-20T13:52:46;3.58;;;0.93;;
51780;SDS011;37844;57.126;24.288;2023-07-20T13:55:30;5.50;;;1.42;;
51780;SDS011;37844;57.126;24.288;2023-07-20T13:58:17;2.58;;;1.25;;
51780;SDS011;37844;57.126;24.288;2023-07-20T14:01:01;3.15;;;1.25;;
51780;SDS011;37844;57.126;24.288;2023-07-20T14:03:45;2.35;;;0.90;;
51780;SDS011;37844;57.126;24.288;2023-07-20T14:06:29;5.95;;;1.00;;
51780;SDS011;37844;57.126;24.288;2023-07-20T14:09:15;7.22;;;1.27;;
51780;SDS011;37844;57.126;24.288;2023-07-20T14:11:59;3.70;;;1.35;;
51780;SDS011;37844;57.126;24.288;2023-07-20T14:14:43;4.50;;;1.20;;
51780;SDS011;37844;57.126;24.288;2023-07-20T14:17:28;7.95;;;1.45;;
51780;SDS011;37844;57.126;24.288;2023-07-20T14:20:11;1.65;;;1.00;;
51780;SDS011;37844;57.126;24.288;2023-07-20T14:22:56;2.40;;;1.08;;
51780;SDS011;37844;57.126;24.288;2023-07-20T14:25:40;2.22;;;1.35;;
51780;SDS011;37844;57.126;24.288;2023-07-20T14:28:24;3.58;;;1.33;;
51780;SDS011;37844;57.126;24.288;2023-07-20T14:31:09;2.38;;;0.88;;
51780;SDS011;37844;57.126;24.288;2023-07-20T14:33:53;10.30;;;2.83;;
51780;SDS011;37844;57.126;24.288;2023-07-20T14:36:37;2.15;;;1.15;;
51780;SDS011;37844;57.126;24.288;2023-07-20T14:39:21;0.98;;;0.77;;
51780;SDS011;37844;57.126;24.288;2023-07-20T14:42:05;3.17;;;1.63;;
51780;SDS011;37844;57.126;24.288;2023-07-20T14:44:50;2.42;;;1.10;;
51780;SDS011;37844;57.126;24.288;2023-07-20T14:47:34;8.10;;;1.92;;
51780;SDS011;37844;57.126;24.288;2023-07-20T14:50:19;8.35;;;2.10;;
51780;SDS011;37844;57.126;24.288;2023-07-20T14:53:04;11.35;;;4.47;;
51780;SDS011;37844;57.126;24.288;2023-07-20T14:55:48;7.00;;;1.98;;
51780;SDS011;37844;57.126;24.288;2023-07-20T14:58:32;12.40;;;1.40;;
51780;SDS011;37844;57.126;24.288;2023-07-20T15:01:16;5.47;;;1.65;;
51780;SDS011;37844;57.126;24.288;2023-07-20T15:04:00;6.47;;;1.50;;
51780;SDS011;37844;57.126;24.288;2023-07-20T15:06:43;3.35;;;1.38;;
51780;SDS011;37844;57.126;24.288;2023-07-20T15:09:27;6.75;;;1.13;;
51780;SDS011;37844;57.126;24.288;2023-07-20T15:12:12;7.45;;;1.20;;
51780;SDS011;37844;57.126;24.288;2023-07-20T15:15:03;6.65;;;2.72;;
51780;SDS011;37844;57.126;24.288;2023-07-20T15:17:50;2.63;;;1.40;;
51780;SDS011;37844;57.126;24.288;2023-07-20T15:20:34;3.50;;;1.20;;
51780;SDS011;37844;57.126;24.288;2023-07-20T15:23:19;9.60;;;2.40;;
51780;SDS011;37844;57.126;24.288;2023-07-20T15:26:16;10.65;;;2.05;;
51780;SDS011;37844;57.126;24.288;2023-07-20T15:29:00;8.77;;;2.60;;
51780;SDS011;37844;57.126;24.288;2023-07-20T15:31:44;6.43;;;1.98;;
51780;SDS011;37844;57.126;24.288;2023-07-20T15:34:28;22.15;;;9.02;;
51780;SDS011;37844;57.126;24.288;2023-07-20T15:37:12;17.42;;;4.00;;
51780;SDS011;37844;57.126;24.288;2023-07-20T15:39:56;4.53;;;1.77;;
51780;SDS011;37844;57.126;24.288;2023-07-20T15:42:40;13.93;;;2.95;;
51780;SDS011;37844;57.126;24.288;2023-07-20T15:45:24;8.00;;;1.67;;
51780;SDS011;37844;57.126;24.288;2023-07-20T15:48:12;4.40;;;1.60;;
51780;SDS011;37844;57.126;24.288;2023-07-20T15:50:56;6.32;;;1.70;;
51780;SDS011;37844;57.126;24.288;2023-07-20T15:53:40;5.05;;;1.40;;
51780;SDS011;37844;57.126;24.288;2023-07-20T15:56:24;7.68;;;2.70;;
51780;SDS011;37844;57.126;24.288;2023-07-20T15:59:09;13.57;;;2.47;;
51780;SDS011;37844;57.126;24.288;2023-07-20T16:01:54;1.85;;;1.13;;
51780;SDS011;37844;57.126;24.288;2023-07-20T16:04:38;4.13;;;1.80;;
51780;SDS011;37844;57.126;24.288;2023-07-20T16:07:23;5.63;;;1.73;;
51780;SDS011;37844;57.126;24.288;2023-07-20T16:10:07;4.50;;;1.58;;
51780;SDS011;37844;57.126;24.288;2023-07-20T16:12:53;1.80;;;1.25;;
51780;SDS011;37844;57.126;24.288;2023-07-20T16:15:37;1.90;;;0.85;;
51780;SDS011;37844;57.126;24.288;2023-07-20T16:18:24;8.63;;;1.73;;
51780;SDS011;37844;57.126;24.288;2023-07-20T16:21:08;18.45;;;5.10;;
51780;SDS011;37844;57.126;24.288;2023-07-20T16:23:52;11.30;;;3.85;;
51780;SDS011;37844;57.126;24.288;2023-07-20T16:26:36;5.85;;;1.45;;
51780;SDS011;37844;57.126;24.288;2023-07-20T16:29:20;3.28;;;1.25;;
51780;SDS011;37844;57.126;24.288;2023-07-20T16:32:07;4.88;;;1.65;;
51780;SDS011;37844;57.126;24.288;2023-07-20T16:34:52;4.22;;;1.55;;